createdAt,value
2023-04-02T00:01:39.156Z,3.40
2023-04-02T00:03:42.753Z,3.03
2023-04-02T00:05:51.541Z,3.00
2023-04-02T00:07:57.946Z,3.00
2023-04-02T00:09:59.752Z,3.20
2023-04-02T00:12:15.881Z,2.80
2023-04-02T00:14:37.821Z,3.00
2023-04-02T00:16:42.220Z,2.97
2023-04-02T00:18:50.176Z,2.90
2023-04-02T00:21:04.011Z,2.83
2023-04-02T00:23:06.622Z,3.03
2023-04-02T00:25:16.261Z,2.90
2023-04-02T00:27:17.973Z,2.90
2023-04-02T00:29:24.999Z,3.03
2023-04-02T00:31:27.146Z,2.90
2023-04-02T00:33:31.612Z,3.00
2023-04-02T00:35:38.287Z,2.73
2023-04-02T00:37:42.229Z,3.23
2023-04-02T00:39:44.353Z,3.17
2023-04-02T00:41:49.319Z,2.93
2023-04-02T00:43:53.709Z,3.17
2023-04-02T00:45:59.633Z,2.83
2023-04-02T00:48:16.704Z,3.17
2023-04-02T00:50:34.123Z,2.77
2023-04-02T00:52:36.631Z,3.17
2023-04-02T00:55:20.529Z,2.90
2023-04-02T00:57:25.579Z,2.93
2023-04-02T00:59:34.128Z,2.80
2023-04-02T01:01:38.049Z,2.60
2023-04-02T01:03:39.977Z,2.70
2023-04-02T01:06:14.356Z,2.73
2023-04-02T01:08:23.976Z,3.10
2023-04-02T01:10:46.688Z,3.40
2023-04-02T01:13:25.955Z,3.20
2023-04-02T01:15:41.521Z,2.90
2023-04-02T01:17:54.357Z,2.90
2023-04-02T01:20:23.591Z,2.57
2023-04-02T01:22:34.979Z,2.77
2023-04-02T01:24:39.888Z,2.60
2023-04-02T01:26:56.308Z,3.13
2023-04-02T01:29:14.076Z,2.73
2023-04-02T01:31:16.556Z,2.67
2023-04-02T01:33:23.875Z,2.63
2023-04-02T01:35:31.680Z,2.60
2023-04-02T01:37:37.200Z,2.80
2023-04-02T01:40:02.451Z,2.67
2023-04-02T01:42:23.022Z,2.93
2023-04-02T01:44:40.385Z,2.83
2023-04-02T01:46:46.726Z,2.80
2023-04-02T01:48:48.597Z,2.67
2023-04-02T01:50:54.902Z,2.77
2023-04-02T01:52:59.375Z,2.83
2023-04-02T01:55:01.524Z,2.60
2023-04-02T01:57:04.102Z,2.80
2023-04-02T01:59:11.995Z,3.00
2023-04-02T02:01:19.345Z,2.40
2023-04-02T02:03:23.596Z,2.40
2023-04-02T02:05:26.813Z,2.63
2023-04-02T02:07:30.769Z,3.00
2023-04-02T02:09:38.827Z,2.70
2023-04-02T02:11:41.056Z,2.57
2023-04-02T02:14:08.800Z,2.57
2023-04-02T02:16:17.770Z,2.43
2023-04-02T02:18:27.225Z,2.43
2023-04-02T02:20:33.646Z,2.30
2023-04-02T02:22:39.041Z,2.17
2023-04-02T02:24:42.124Z,2.57
2023-04-02T02:26:46.955Z,2.43
2023-04-02T02:28:51.516Z,2.30
2023-04-02T02:31:18.437Z,2.40
2023-04-02T02:33:26.066Z,2.20
2023-04-02T02:35:53.522Z,2.20
2023-04-02T02:38:06.296Z,2.10
2023-04-02T02:40:26.776Z,2.03
2023-04-02T02:42:55.051Z,2.20
2023-04-02T02:44:58.351Z,2.17
2023-04-02T02:47:09.512Z,2.13
2023-04-02T02:49:24.085Z,2.17
2023-04-02T02:51:39.184Z,2.20
2023-04-02T02:53:50.538Z,2.10
2023-04-02T02:55:58.415Z,2.30
2023-04-02T02:58:10.324Z,2.03
2023-04-02T03:00:24.777Z,2.10
2023-04-02T03:02:29.153Z,2.10
2023-04-02T03:04:35.640Z,2.30
2023-04-02T03:06:43.938Z,2.13
2023-04-02T03:08:54.223Z,2.10
2023-04-02T03:11:06.444Z,2.10
2023-04-02T03:13:12.603Z,2.10
2023-04-02T03:15:41.883Z,2.10
2023-04-02T03:17:59.385Z,2.03
2023-04-02T03:20:11.949Z,2.17
2023-04-02T03:22:26.486Z,2.00
2023-04-02T03:24:32.970Z,2.20
2023-04-02T03:26:38.285Z,2.30
2023-04-02T03:28:47.354Z,2.17
2023-04-02T03:30:58.335Z,1.90
2023-04-02T03:33:04.769Z,2.20
2023-04-02T03:35:32.449Z,1.73
2023-04-02T03:37:42.058Z,2.00
2023-04-02T03:39:50.983Z,1.97
2023-04-02T03:42:07.410Z,1.93
2023-04-02T03:44:23.737Z,2.10
2023-04-02T03:46:37.973Z,2.47
2023-04-02T03:48:51.966Z,2.07
2023-04-02T03:51:25.911Z,1.87
2023-04-02T03:53:29.584Z,1.80
2023-04-02T03:55:35.451Z,1.87
2023-04-02T03:58:04.895Z,1.97
2023-04-02T04:00:24.208Z,2.00
2023-04-02T04:02:48.198Z,2.23
2023-04-02T04:04:51.588Z,2.47
2023-04-02T04:06:56.201Z,2.30
2023-04-02T04:09:18.443Z,2.27
2023-04-02T04:11:27.334Z,2.40
2023-04-02T04:13:57.727Z,2.70
2023-04-02T04:16:06.669Z,2.67
2023-04-02T04:18:34.756Z,3.00
2023-04-02T04:20:59.917Z,3.00
2023-04-02T04:23:38.823Z,3.30
2023-04-02T04:25:43.821Z,3.00
2023-04-02T04:28:20.405Z,3.27
2023-04-02T04:30:36.491Z,3.60
2023-04-02T04:32:50.405Z,3.03
2023-04-02T04:35:23.257Z,3.53
2023-04-02T04:37:33.392Z,3.80
2023-04-02T04:39:46.952Z,3.50
2023-04-02T04:41:51.579Z,3.87
2023-04-02T04:44:17.512Z,3.60
2023-04-02T04:46:28.824Z,3.27
2023-04-02T04:48:38.907Z,3.50
2023-04-02T04:51:03.189Z,3.33
2023-04-02T04:53:13.936Z,3.27
2023-04-02T04:55:36.782Z,2.90
2023-04-02T04:57:41.901Z,2.70
2023-04-02T05:00:02.395Z,2.70
2023-04-02T05:02:20.231Z,2.60
2023-04-02T05:04:30.828Z,2.37
2023-04-02T05:06:33.010Z,2.30
2023-04-02T05:08:41.383Z,2.20
2023-04-02T05:11:07.734Z,2.30
2023-04-02T05:13:40.303Z,2.37
2023-04-02T05:15:52.098Z,2.43
2023-04-02T05:18:11.503Z,2.20
2023-04-02T05:20:25.295Z,2.23
2023-04-02T05:22:53.071Z,2.50
2023-04-02T05:25:21.958Z,2.47
2023-04-02T05:27:34.767Z,2.00
2023-04-02T05:29:43.513Z,2.10
2023-04-02T05:32:06.061Z,2.53
2023-04-02T05:34:09.396Z,2.33
2023-04-02T05:36:17.951Z,2.37
2023-04-02T05:38:27.812Z,2.40
2023-04-02T05:40:41.587Z,2.40
2023-04-02T05:42:48.767Z,2.60
2023-04-02T05:45:23.223Z,2.50
2023-04-02T05:47:31.210Z,2.73
2023-04-02T05:49:43.603Z,2.20
2023-04-02T05:51:51.474Z,2.23
2023-04-02T05:53:57.164Z,2.30
2023-04-02T05:56:21.982Z,2.27
2023-04-02T05:58:36.698Z,2.43
2023-04-02T06:01:15.497Z,2.10
2023-04-02T06:03:46.072Z,2.03
2023-04-02T06:05:51.733Z,1.90
2023-04-02T06:08:03.307Z,1.80
2023-04-02T06:10:09.379Z,1.70
2023-04-02T06:12:41.587Z,1.90
2023-04-02T06:14:44.055Z,1.70
2023-04-02T06:16:46.565Z,1.67
2023-04-02T06:18:48.429Z,1.80
2023-04-02T06:20:50.454Z,1.63
2023-04-02T06:23:07.556Z,1.70
2023-04-02T06:26:01.443Z,1.63
2023-04-02T06:28:14.652Z,1.80
2023-04-02T06:30:39.332Z,1.67
2023-04-02T06:32:41.451Z,1.70
2023-04-02T06:34:45.227Z,1.70
2023-04-02T06:36:54.584Z,1.70
2023-04-02T06:39:08.594Z,1.70
2023-04-02T06:41:19.832Z,1.50
2023-04-02T06:44:07.116Z,1.47
2023-04-02T06:46:42.314Z,1.67
2023-04-02T06:48:51.681Z,1.60
2023-04-02T06:51:03.423Z,1.60
2023-04-02T06:53:13.774Z,1.73
2023-04-02T06:55:36.829Z,1.50
2023-04-02T06:57:42.561Z,1.50
2023-04-02T06:59:45.125Z,1.43
2023-04-02T07:01:57.659Z,1.70
2023-04-02T07:04:00.365Z,1.63
2023-04-02T07:06:15.297Z,1.53
2023-04-02T07:08:17.922Z,1.53
2023-04-02T07:10:20.281Z,1.60
2023-04-02T07:12:28.234Z,1.60
2023-04-02T07:14:30.473Z,1.60
2023-04-02T07:16:33.920Z,1.40
2023-04-02T07:18:38.430Z,1.50
2023-04-02T07:20:45.670Z,1.40
2023-04-02T07:22:49.531Z,1.50
2023-04-02T07:24:51.251Z,1.60
2023-04-02T07:26:53.029Z,1.37
2023-04-02T07:28:56.125Z,1.50
2023-04-02T07:30:59.957Z,1.50
2023-04-02T07:33:02.041Z,1.40
2023-04-02T07:35:04.890Z,1.40
2023-04-02T07:37:13.410Z,1.30
2023-04-02T07:39:15.536Z,1.33
2023-04-02T07:41:19.464Z,1.50
2023-04-02T07:43:21.799Z,1.20
2023-04-02T07:45:23.528Z,1.40
2023-04-02T07:47:25.268Z,1.30
2023-04-02T07:49:27.076Z,1.40
2023-04-02T07:51:31.471Z,1.30
2023-04-02T07:53:37.811Z,1.30
2023-04-02T07:55:39.486Z,1.50
2023-04-02T07:57:54.011Z,1.40
2023-04-02T07:59:56.999Z,1.40
2023-04-02T08:01:58.880Z,1.40
2023-04-02T08:04:01.107Z,1.37
2023-04-02T08:06:06.521Z,1.50
2023-04-02T08:08:08.235Z,1.30
2023-04-02T08:10:12.578Z,1.40
2023-04-02T08:12:16.619Z,1.40
2023-04-02T08:14:18.340Z,1.40
2023-04-02T08:16:20.108Z,1.60
2023-04-02T08:18:24.825Z,1.70
2023-04-02T08:20:26.586Z,1.70
2023-04-02T08:22:29.149Z,1.40
2023-04-02T08:24:31.021Z,1.47
2023-04-02T08:26:36.764Z,1.50
2023-04-02T08:28:38.557Z,1.30
2023-04-02T08:30:40.565Z,1.80
2023-04-02T08:32:42.475Z,1.50
2023-04-02T08:34:45.426Z,1.60
2023-04-02T08:36:47.315Z,1.60
2023-04-02T08:38:51.149Z,1.60
2023-04-02T08:40:56.537Z,1.70
2023-04-02T08:43:30.695Z,1.43
2023-04-02T08:45:51.563Z,1.70
2023-04-02T08:47:57.435Z,1.40
2023-04-02T08:50:07.815Z,1.47
2023-04-02T08:52:25.540Z,1.80
2023-04-02T08:54:30.579Z,1.50
2023-04-02T08:56:40.085Z,1.60
2023-04-02T08:58:48.361Z,1.40
2023-04-02T09:00:56.379Z,1.60
2023-04-02T09:03:06.182Z,1.40
2023-04-02T09:05:18.792Z,1.50
2023-04-02T09:07:20.745Z,1.60
2023-04-02T09:09:28.724Z,1.40
2023-04-02T09:11:47.965Z,1.60
2023-04-02T09:13:57.840Z,1.57
2023-04-02T09:16:14.043Z,1.50
2023-04-02T09:18:18.232Z,1.73
2023-04-02T09:20:24.955Z,1.47
2023-04-02T09:22:31.525Z,1.50
2023-04-02T09:24:33.919Z,1.20
2023-04-02T09:26:37.737Z,1.50
2023-04-02T09:28:39.493Z,1.40
2023-04-02T09:31:22.138Z,1.40
2023-04-02T09:33:43.056Z,1.20
2023-04-02T09:35:52.549Z,1.20
2023-04-02T09:38:31.395Z,1.10
2023-04-02T09:40:46.949Z,1.40
2023-04-02T09:42:48.620Z,1.40
2023-04-02T09:44:50.354Z,1.50
2023-04-02T09:47:04.158Z,1.40
2023-04-02T09:49:05.998Z,1.40
2023-04-02T09:51:20.204Z,1.30
2023-04-02T09:53:46.136Z,1.37
2023-04-02T09:55:47.823Z,1.30
2023-04-02T09:57:53.135Z,1.23
2023-04-02T10:00:25.141Z,1.10
2023-04-02T10:02:32.859Z,1.27
2023-04-02T10:04:48.800Z,1.30
2023-04-02T10:06:57.762Z,1.30
2023-04-02T10:09:20.503Z,1.43
2023-04-02T10:11:46.138Z,1.30
2023-04-02T10:14:11.966Z,1.50
2023-04-02T10:16:21.736Z,1.40
2023-04-02T10:18:34.355Z,1.10
2023-04-02T10:20:50.401Z,1.40
2023-04-02T10:22:53.227Z,1.40
2023-04-02T10:25:03.135Z,1.37
2023-04-02T10:27:21.244Z,1.27
2023-04-02T10:29:43.863Z,1.30
2023-04-02T10:32:13.995Z,1.30
2023-04-02T10:34:36.267Z,1.50
2023-04-02T10:37:02.699Z,1.20
2023-04-02T10:39:12.305Z,1.53
2023-04-02T10:41:51.878Z,1.40
2023-04-02T10:44:30.835Z,1.50
2023-04-02T10:47:01.733Z,1.30
2023-04-02T10:49:09.513Z,1.40
2023-04-02T10:51:33.194Z,1.40
2023-04-02T10:54:06.291Z,1.23
2023-04-02T10:56:12.327Z,1.40
2023-04-02T10:58:23.807Z,1.40
2023-04-02T11:00:34.466Z,1.43
2023-04-02T11:02:44.058Z,1.20
2023-04-02T11:04:46.797Z,1.47
2023-04-02T11:07:07.158Z,1.50
2023-04-02T11:09:19.040Z,1.20
2023-04-02T11:11:26.261Z,1.33
2023-04-02T11:13:55.600Z,1.50
2023-04-02T11:15:57.586Z,1.30
2023-04-02T11:17:59.557Z,1.30
2023-04-02T11:20:43.674Z,1.40
2023-04-02T11:22:47.389Z,1.27
2023-04-02T11:24:54.476Z,1.20
2023-04-02T11:27:06.716Z,1.47
2023-04-02T11:29:30.697Z,1.30
2023-04-02T11:31:33.464Z,1.30
2023-04-02T11:33:42.101Z,1.40
2023-04-02T11:35:46.123Z,1.50
2023-04-02T11:37:48.509Z,1.40
2023-04-02T11:39:56.641Z,1.47
2023-04-02T11:42:01.134Z,1.30
2023-04-02T11:44:02.789Z,1.20
2023-04-02T11:46:24.133Z,1.40
2023-04-02T11:48:31.094Z,1.23
2023-04-02T11:50:39.939Z,1.40
2023-04-02T11:52:47.878Z,1.47
2023-04-02T11:55:26.287Z,1.20
2023-04-02T11:57:47.018Z,1.30
2023-04-02T12:00:24.817Z,1.20
2023-04-02T12:02:33.176Z,1.10
2023-04-02T12:05:18.035Z,1.10
2023-04-02T12:07:19.812Z,1.20
2023-04-02T12:09:24.797Z,1.17
2023-04-02T12:11:38.652Z,1.10
2023-04-02T12:13:40.502Z,1.03
2023-04-02T12:15:46.122Z,1.10
2023-04-02T12:17:47.951Z,1.30
2023-04-02T12:19:52.377Z,1.20
2023-04-02T12:21:54.272Z,1.30
2023-04-02T12:23:58.846Z,1.20
2023-04-02T12:26:03.769Z,1.20
2023-04-02T12:28:20.598Z,1.20
2023-04-02T12:30:23.539Z,1.23
2023-04-02T12:32:29.752Z,1.27
2023-04-02T12:34:34.237Z,1.03
2023-04-02T12:36:36.056Z,1.20
2023-04-02T12:38:51.175Z,1.30
2023-04-02T12:41:02.149Z,1.40
2023-04-02T12:43:29.454Z,1.27
2023-04-02T12:45:33.912Z,1.60
2023-04-02T12:47:36.363Z,1.40
2023-04-02T12:49:43.074Z,1.37
2023-04-02T12:51:48.371Z,1.40
2023-04-02T12:53:52.436Z,1.40
2023-04-02T12:55:54.977Z,1.40
2023-04-02T12:57:57.864Z,1.40
2023-04-02T13:00:22.545Z,1.43
2023-04-02T13:02:29.877Z,1.50
2023-04-02T13:04:31.830Z,1.70
2023-04-02T13:06:35.572Z,1.60
2023-04-02T13:08:42.443Z,1.30
2023-04-02T13:10:45.319Z,1.40
2023-04-02T13:12:47.410Z,1.30
2023-04-02T13:14:56.490Z,1.60
2023-04-02T13:16:58.227Z,1.33
2023-04-02T13:19:40.427Z,1.43
2023-04-02T13:21:43.819Z,1.60
2023-04-02T13:23:47.660Z,1.70
2023-04-02T13:25:50.191Z,1.50
2023-04-02T13:27:54.018Z,1.50
2023-04-02T13:29:58.481Z,1.60
2023-04-02T13:32:05.890Z,1.60
2023-04-02T13:34:07.814Z,1.80
2023-04-02T13:36:14.741Z,1.70
2023-04-02T13:38:16.982Z,1.60
2023-04-02T13:40:21.876Z,2.10
2023-04-02T13:42:23.706Z,1.83
2023-04-02T13:44:31.903Z,1.73
2023-04-02T13:46:38.269Z,1.60
2023-04-02T13:48:40.324Z,1.70
2023-04-02T13:50:42.425Z,1.90
2023-04-02T13:52:47.935Z,1.87
2023-04-02T13:54:54.198Z,1.83
2023-04-02T13:56:57.817Z,2.00
2023-04-02T13:58:59.825Z,2.10
2023-04-02T14:01:04.497Z,2.20
2023-04-02T14:03:11.296Z,2.07
2023-04-02T14:05:58.324Z,2.20
2023-04-02T14:08:18.434Z,2.17
2023-04-02T14:10:57.633Z,2.07
2023-04-02T14:13:23.511Z,2.17
2023-04-02T14:15:47.152Z,2.50
2023-04-02T14:18:00.779Z,2.20
2023-04-02T14:20:16.883Z,2.40
2023-04-02T14:22:37.194Z,2.90
2023-04-02T14:24:53.153Z,2.43
2023-04-02T14:27:22.539Z,2.60
2023-04-02T14:30:08.754Z,2.50
2023-04-02T14:32:49.485Z,2.90
2023-04-02T14:35:08.101Z,2.80
2023-04-02T14:37:38.989Z,2.60
2023-04-02T14:39:45.335Z,2.53
2023-04-02T14:41:57.488Z,2.73
2023-04-02T14:44:05.876Z,2.43
2023-04-02T14:46:10.532Z,2.50
2023-04-02T14:48:37.198Z,2.50
2023-04-02T14:50:40.842Z,2.47
2023-04-02T14:52:45.860Z,2.70
2023-04-02T14:55:08.440Z,2.53
2023-04-02T14:57:11.834Z,2.53
2023-04-02T14:59:26.026Z,2.90
2023-04-02T15:01:39.747Z,2.60
2023-04-02T15:03:53.835Z,3.07
2023-04-02T15:06:03.271Z,2.97
2023-04-02T15:08:29.836Z,3.00
2023-04-02T15:10:39.020Z,3.23
2023-04-02T15:12:42.005Z,3.27
2023-04-02T15:14:50.804Z,3.50
2023-04-02T15:16:52.572Z,3.43
2023-04-02T15:19:02.553Z,3.20
2023-04-02T15:21:18.963Z,3.20
2023-04-02T15:24:03.690Z,3.20
2023-04-02T15:26:21.710Z,2.90
2023-04-02T15:28:36.101Z,3.27
2023-04-02T15:30:42.212Z,2.67
2023-04-02T15:32:44.389Z,2.60
2023-04-02T15:35:00.272Z,2.90
2023-04-02T15:37:19.661Z,2.90
2023-04-02T15:39:36.790Z,3.20
2023-04-02T15:41:51.950Z,3.43
2023-04-02T15:43:56.802Z,3.50
2023-04-02T15:46:36.875Z,3.70
2023-04-02T15:49:06.658Z,3.30
2023-04-02T15:51:15.777Z,3.53
2023-04-02T15:53:52.460Z,3.80
2023-04-02T15:56:25.110Z,3.70
2023-04-02T15:58:48.759Z,3.47
2023-04-02T16:01:30.162Z,3.80
2023-04-02T16:03:37.337Z,4.00
2023-04-02T16:05:38.991Z,4.10
2023-04-02T16:07:46.780Z,3.87
2023-04-02T16:10:09.704Z,4.00
2023-04-02T16:12:17.289Z,3.67
2023-04-02T16:14:31.179Z,3.90
2023-04-02T16:16:35.384Z,3.63
2023-04-02T16:18:55.608Z,3.37
2023-04-02T16:21:04.941Z,3.23
2023-04-02T16:23:20.972Z,3.37
2023-04-02T16:25:30.069Z,2.97
2023-04-02T16:27:35.247Z,3.13
2023-04-02T16:29:58.039Z,3.40
2023-04-02T16:32:31.409Z,3.20
2023-04-02T16:35:07.740Z,3.40
2023-04-02T16:37:47.004Z,3.30
2023-04-02T16:40:13.382Z,3.43
2023-04-02T16:42:21.750Z,3.50
2023-04-02T16:44:54.192Z,3.83
2023-04-02T16:47:12.950Z,3.47
2023-04-02T16:49:46.897Z,3.60
2023-04-02T16:52:08.332Z,3.00
2023-04-02T16:54:22.469Z,3.27
2023-04-02T16:57:02.479Z,3.73
2023-04-02T16:59:42.644Z,3.50
2023-04-02T17:02:12.334Z,3.73
2023-04-02T17:04:52.495Z,5.23
2023-04-02T17:07:04.306Z,4.07
2023-04-02T17:09:25.445Z,3.53
2023-04-02T17:11:40.701Z,3.60
2023-04-02T17:13:54.338Z,3.70
2023-04-02T17:16:17.963Z,3.93
2023-04-02T17:18:24.603Z,3.47
2023-04-02T17:20:28.121Z,3.43
2023-04-02T17:22:33.076Z,3.47
2023-04-02T17:24:45.764Z,3.50
2023-04-02T17:26:55.438Z,3.40
2023-04-02T17:29:03.165Z,3.67
2023-04-02T17:31:28.209Z,4.10
2023-04-02T17:33:31.106Z,3.60
2023-04-02T17:35:37.162Z,3.30
2023-04-02T17:37:52.350Z,3.20
2023-04-02T17:40:18.631Z,3.23
2023-04-02T17:42:20.339Z,3.20
2023-04-02T17:44:54.130Z,3.43
2023-04-02T17:47:19.357Z,3.47
2023-04-02T17:49:47.185Z,3.13
2023-04-02T17:52:03.144Z,3.70
2023-04-02T17:54:16.989Z,3.00
2023-04-02T17:57:00.213Z,2.87
2023-04-02T17:59:38.484Z,3.20
2023-04-02T18:02:13.167Z,2.97
2023-04-02T18:04:54.473Z,3.07
2023-04-02T18:07:26.520Z,2.60
2023-04-02T18:09:36.304Z,3.23
2023-04-02T18:11:53.661Z,2.93
2023-04-02T18:14:35.907Z,2.90
2023-04-02T18:16:52.483Z,2.80
2023-04-02T18:19:08.362Z,2.80
2023-04-02T18:21:31.378Z,2.67
2023-04-02T18:24:13.519Z,2.90
2023-04-02T18:26:27.846Z,2.70
2023-04-02T18:28:48.030Z,2.80
2023-04-02T18:30:58.089Z,2.77
2023-04-02T18:33:54.149Z,2.70
2023-04-02T18:36:16.813Z,2.93
2023-04-02T18:39:03.995Z,2.70
2023-04-02T18:41:27.971Z,2.70
2023-04-02T18:43:57.326Z,2.77
2023-04-02T18:46:26.159Z,2.70
2023-04-02T18:48:46.657Z,2.90
2023-04-02T18:50:48.828Z,2.80
2023-04-02T18:52:50.894Z,2.60
2023-04-02T18:55:10.407Z,2.70
2023-04-02T18:57:30.535Z,2.67
2023-04-02T18:59:46.796Z,2.80
2023-04-02T19:01:51.278Z,2.40
2023-04-02T19:04:04.915Z,2.53
2023-04-02T19:06:19.530Z,2.90
2023-04-02T19:08:25.011Z,2.97
2023-04-02T19:10:35.225Z,2.97
2023-04-02T19:12:37.104Z,2.83
2023-04-02T19:14:39.914Z,2.50
2023-04-02T19:17:01.897Z,3.10
2023-04-02T19:19:45.370Z,2.70
2023-04-02T19:21:53.491Z,3.40
2023-04-02T19:24:16.304Z,3.10
2023-04-02T19:26:24.510Z,2.93
2023-04-02T19:28:37.673Z,3.13
2023-04-02T19:30:55.477Z,3.50
2023-04-02T19:33:16.769Z,3.20
2023-04-02T19:35:32.741Z,2.93
2023-04-02T19:37:49.431Z,3.57
2023-04-02T19:39:57.421Z,3.60
2023-04-02T19:42:29.045Z,3.33
2023-04-02T19:44:30.805Z,3.20
2023-04-02T19:46:32.538Z,3.20
2023-04-02T19:48:52.948Z,3.50
2023-04-02T19:50:54.892Z,3.10
2023-04-02T19:52:56.829Z,2.87
2023-04-02T19:54:58.456Z,3.23
2023-04-02T19:57:00.699Z,3.30
2023-04-02T19:59:17.132Z,3.40
2023-04-02T20:01:20.241Z,3.10
2023-04-02T20:03:22.268Z,3.30
2023-04-02T20:05:25.448Z,3.43
2023-04-02T20:07:28.068Z,3.00
2023-04-02T20:09:29.804Z,3.00
2023-04-02T20:11:34.911Z,2.87
2023-04-02T20:13:37.280Z,3.20
2023-04-02T20:15:40.517Z,3.10
2023-04-02T20:17:42.405Z,3.00
2023-04-02T20:19:44.541Z,3.00
2023-04-02T20:21:46.353Z,2.70
2023-04-02T20:23:48.088Z,2.70
2023-04-02T20:25:56.616Z,2.40
2023-04-02T20:28:00.951Z,3.43
2023-04-02T20:30:03.545Z,2.83
2023-04-02T20:32:09.089Z,2.77
2023-04-02T20:34:10.890Z,2.90
2023-04-02T20:36:16.912Z,2.70
2023-04-02T20:38:21.068Z,2.80
2023-04-02T20:40:22.791Z,2.60
2023-04-02T20:42:25.480Z,2.80
2023-04-02T20:44:28.691Z,2.67
2023-04-02T20:46:30.400Z,2.70
2023-04-02T20:48:34.615Z,3.03
2023-04-02T20:50:38.889Z,2.80
2023-04-02T20:52:40.825Z,2.40
2023-04-02T20:54:47.363Z,2.67
2023-04-02T20:56:51.581Z,2.50
2023-04-02T20:58:53.418Z,2.60
2023-04-02T21:00:55.252Z,2.80
2023-04-02T21:03:00.218Z,2.90
2023-04-02T21:05:02.131Z,2.67
2023-04-02T21:07:04.092Z,2.40
2023-04-02T21:09:08.565Z,2.70
2023-04-02T21:11:11.021Z,2.57
2023-04-02T21:13:13.017Z,2.67
2023-04-02T21:15:14.802Z,2.60
2023-04-02T21:17:16.661Z,2.60
2023-04-02T21:19:18.389Z,2.60
2023-04-02T21:21:21.256Z,2.80
2023-04-02T21:23:24.944Z,2.50
2023-04-02T21:25:26.628Z,2.43
2023-04-02T21:27:28.400Z,2.60
2023-04-02T21:29:32.499Z,2.50
2023-04-02T21:31:37.156Z,2.80
2023-04-02T21:33:45.234Z,2.63
2023-04-02T21:35:50.545Z,2.73
2023-04-02T21:37:52.275Z,2.70
2023-04-02T21:39:53.927Z,2.80
2023-04-02T21:41:55.834Z,2.80
2023-04-02T21:44:01.027Z,3.00
2023-04-02T21:46:03.817Z,2.43
2023-04-02T21:48:09.438Z,2.80
2023-04-02T21:50:11.171Z,2.53
2023-04-02T21:52:15.304Z,2.90
2023-04-02T21:54:17.177Z,2.90
2023-04-02T21:56:23.523Z,2.70
2023-04-02T21:58:25.227Z,2.60
2023-04-02T22:00:26.868Z,2.63
2023-04-02T22:02:30.766Z,2.80
2023-04-02T22:04:33.335Z,2.50
2023-04-02T22:06:40.219Z,2.60
2023-04-02T22:08:43.910Z,2.87
2023-04-02T22:10:46.414Z,3.03
2023-04-02T22:12:48.126Z,2.57
2023-04-02T22:14:49.787Z,2.77
2023-04-02T22:16:52.063Z,2.97
2023-04-02T22:18:55.816Z,2.60
2023-04-02T22:20:58.690Z,2.80
2023-04-02T22:23:00.393Z,2.60
2023-04-02T22:25:03.171Z,2.30
2023-04-02T22:27:06.130Z,2.10
2023-04-02T22:29:10.825Z,2.70
2023-04-02T22:31:23.576Z,2.40
2023-04-02T22:33:25.493Z,2.83
2023-04-02T22:35:30.923Z,2.33
2023-04-02T22:37:33.906Z,2.60
2023-04-02T22:39:35.635Z,2.73
2023-04-02T22:41:40.717Z,2.20
2023-04-02T22:43:49.018Z,2.47
2023-04-02T22:45:51.092Z,2.57
2023-04-02T22:47:53.144Z,2.50
2023-04-02T22:49:54.831Z,2.50
2023-04-02T22:51:56.574Z,2.47
2023-04-02T22:53:58.282Z,2.77
2023-04-02T22:56:06.881Z,2.53
2023-04-02T22:58:08.829Z,2.37
2023-04-02T23:00:16.333Z,2.40
2023-04-02T23:02:20.527Z,2.80
2023-04-02T23:04:22.245Z,2.60
2023-04-02T23:06:24.671Z,2.70
2023-04-02T23:08:26.398Z,2.67
2023-04-02T23:10:34.323Z,2.63
2023-04-02T23:12:38.333Z,2.90
2023-04-02T23:14:43.103Z,2.40
2023-04-02T23:16:44.783Z,2.80
2023-04-02T23:18:48.020Z,2.70
2023-04-02T23:20:49.781Z,2.73
2023-04-02T23:22:51.491Z,2.70
2023-04-02T23:24:54.486Z,2.70
2023-04-02T23:26:56.231Z,2.73
2023-04-02T23:29:02.671Z,2.93
2023-04-02T23:31:07.529Z,2.60
2023-04-02T23:33:09.360Z,2.37
2023-04-02T23:35:11.035Z,2.50
2023-04-02T23:37:12.692Z,2.80
2023-04-02T23:39:14.784Z,2.53
2023-04-02T23:41:17.213Z,2.50
2023-04-02T23:43:19.053Z,2.40
2023-04-02T23:45:20.949Z,2.80
2023-04-02T23:47:22.676Z,2.60
2023-04-02T23:49:24.435Z,2.47
2023-04-02T23:51:27.947Z,2.23
2023-04-02T23:53:30.010Z,2.83
2023-04-02T23:55:31.700Z,2.70
2023-04-02T23:57:33.461Z,2.60
2023-04-02T23:59:35.270Z,2.40
